Time;durP1;ratioP1;P1;durP2;ratioP2;P2;SDS_P1;SDS_P2;PMS_P1;PMS_P2;Temp;Humidity;BMP_temperature;BMP_pressure;BME280_temperature;BME280_humidity;BME280_pressure;Samples;Min_cycle;Max_cycle;Signal;HPM_P1;HPM_P2
2023/12/14 00:00:44;;;;;;;25.83;18.90;;;14.60;99.90;;;;;;4594334;19;20423;-75
2023/12/14 00:02:39;;;;;;;26.45;18.08;;;14.70;99.90;;;;;;4594150;19;20006;-75
2023/12/14 00:04:14;;;;;;;24.73;18.20;;;14.60;99.90;;;;;;4594373;19;20007;-75
2023/12/14 00:05:49;;;;;;;27.98;19.25;;;14.70;99.90;;;;;;4593127;19;20370;-75
2023/12/14 00:07:23;;;;;;;26.42;18.65;;;14.60;99.90;;;;;;4594081;19;20098;-75
2023/12/14 00:08:58;;;;;;;29.90;19.67;;;14.60;99.90;;;;;;4594412;19;20002;-75
2023/12/14 00:10:33;;;;;;;28.15;18.92;;;14.60;99.90;;;;;;4594017;19;20010;-75
2023/12/14 00:12:07;;;;;;;24.23;17.98;;;14.60;99.90;;;;;;4594106;19;20427;-75
2023/12/14 00:13:42;;;;;;;27.20;19.25;;;14.70;99.90;;;;;;4594394;19;20030;-75
2023/12/14 00:15:16;;;;;;;27.25;19.75;;;14.60;99.90;;;;;;4592776;19;20002;-75
2023/12/14 00:16:51;;;;;;;28.67;21.77;;;14.70;99.90;;;;;;4593624;19;20011;-75
2023/12/14 00:18:26;;;;;;;30.83;21.88;;;14.60;99.90;;;;;;4594011;19;20027;-75
2023/12/14 00:20:01;;;;;;;28.30;21.15;;;14.60;99.90;;;;;;4594146;19;20003;-75
2023/12/14 00:21:35;;;;;;;24.65;18.77;;;14.60;99.90;;;;;;4593554;19;20022;-75
2023/12/14 00:23:10;;;;;;;33.00;20.98;;;14.60;99.90;;;;;;4594145;19;20294;-75
2023/12/14 00:24:45;;;;;;;29.05;20.98;;;14.60;99.90;;;;;;4593971;19;20489;-75
2023/12/14 00:26:20;;;;;;;25.70;21.27;;;14.60;99.90;;;;;;4592875;19;20318;-75
2023/12/14 00:27:56;;;;;;;29.30;20.85;;;14.60;99.90;;;;;;4593047;19;20013;-75
2023/12/14 00:29:31;;;;;;;27.00;19.80;;;14.60;99.90;;;;;;4593607;19;20004;-75
2023/12/14 00:31:05;;;;;;;26.58;20.05;;;14.60;99.90;;;;;;4592211;19;20422;-75
2023/12/14 00:32:40;;;;;;;27.00;20.73;;;14.60;99.90;;;;;;4592537;19;20316;-75
2023/12/14 00:34:14;;;;;;;30.40;21.63;;;14.60;99.90;;;;;;4593160;19;20005;-75
2023/12/14 00:35:49;;;;;;;23.65;18.50;;;14.60;99.90;;;;;;4592823;19;20398;-75
2023/12/14 00:37:25;;;;;;;24.05;18.77;;;14.60;99.90;;;;;;4593891;19;20052;-75
2023/12/14 00:39:00;;;;;;;25.45;18.92;;;14.60;99.90;;;;;;4593447;19;19999;-75
2023/12/14 00:40:35;;;;;;;26.10;17.88;;;14.60;99.90;;;;;;4593309;19;20014;-75
2023/12/14 00:42:10;;;;;;;23.48;16.92;;;14.60;99.90;;;;;;4593508;19;20041;-75
2023/12/14 00:43:45;;;;;;;25.40;18.15;;;14.60;99.90;;;;;;4593545;19;20031;-75
2023/12/14 00:45:18;;;;;;;24.85;17.10;;;14.60;99.90;;;;;;4593192;19;20021;-75
2023/12/14 00:46:54;;;;;;;25.52;18.38;;;14.60;99.90;;;;;;4593532;19;20007;-75
2023/12/14 00:48:28;;;;;;;24.17;17.77;;;14.60;99.90;;;;;;4592220;19;20019;-75
2023/12/14 00:50:02;;;;;;;23.75;16.58;;;14.60;99.90;;;;;;4593134;19;20022;-75
2023/12/14 00:51:37;;;;;;;24.95;17.25;;;14.50;99.90;;;;;;4593485;19;20422;-75
2023/12/14 00:53:12;;;;;;;25.98;17.63;;;14.60;99.90;;;;;;4593325;19;20002;-75
2023/12/14 00:54:46;;;;;;;24.05;16.58;;;14.60;99.90;;;;;;4593098;19;20415;-74
2023/12/14 00:56:22;;;;;;;24.77;17.45;;;14.60;99.90;;;;;;4592450;19;20027;-75
2023/12/14 00:57:56;;;;;;;23.58;16.55;;;14.50;99.90;;;;;;4593435;19;20377;-76
2023/12/14 00:59:31;;;;;;;24.10;16.90;;;14.60;99.90;;;;;;4593123;19;20006;-75
2023/12/14 01:14:39;;;;;;;25.75;19.23;;;14.50;99.90;;;;;;4555947;19;20056;-75
2023/12/14 01:16:14;;;;;;;25.52;18.52;;;14.50;99.90;;;;;;4593253;19;20018;-76
2023/12/14 01:17:49;;;;;;;25.42;17.65;;;14.50;99.90;;;;;;4592949;19;20016;-76
2023/12/14 01:19:25;;;;;;;24.33;18.85;;;14.50;99.90;;;;;;4593068;19;20031;-75
2023/12/14 01:21:00;;;;;;;25.65;18.40;;;14.60;99.90;;;;;;4592763;19;20029;-75
2023/12/14 01:22:35;;;;;;;22.70;16.75;;;14.60;99.90;;;;;;4592705;19;20006;-75
2023/12/14 01:24:10;;;;;;;24.98;17.35;;;14.60;99.90;;;;;;4592705;19;20009;-75
2023/12/14 01:25:45;;;;;;;22.30;17.48;;;14.60;99.90;;;;;;4591605;19;20003;-76
2023/12/14 01:27:19;;;;;;;24.10;18.00;;;14.70;99.90;;;;;;4592764;19;20038;-75
2023/12/14 01:28:53;;;;;;;23.60;18.30;;;14.70;99.90;;;;;;4592834;19;20010;-75
2023/12/14 01:30:29;;;;;;;27.95;19.33;;;14.70;99.90;;;;;;4592681;19;20010;-75
2023/12/14 01:32:02;;;;;;;26.40;17.98;;;14.70;99.90;;;;;;4592545;19;20020;-75
2023/12/14 01:33:36;;;;;;;24.77;17.88;;;14.80;99.90;;;;;;4591107;19;20027;-75
2023/12/14 01:35:12;;;;;;;27.27;19.63;;;14.80;99.90;;;;;;4591787;19;20003;-75
2023/12/14 01:36:46;;;;;;;27.65;20.88;;;14.80;99.90;;;;;;4592433;19;20465;-76
2023/12/14 01:38:21;;;;;;;29.15;19.67;;;14.80;99.90;;;;;;4592389;19;20032;-75
2023/12/14 01:39:56;;;;;;;30.38;21.45;;;14.90;99.90;;;;;;4591808;19;20066;-75
2023/12/14 01:41:30;;;;;;;28.98;19.70;;;14.90;99.90;;;;;;4592263;19;20426;-76
2023/12/14 01:43:09;;;;;;;34.58;23.13;;;14.90;99.90;;;;;;4592285;19;20450;-75
2023/12/14 01:44:45;;;;;;;34.28;22.67;;;14.90;99.90;;;;;;4592186;19;20010;-76
2023/12/14 01:46:19;;;;;;;32.78;21.85;;;14.90;99.90;;;;;;4592220;19;19999;-75
2023/12/14 01:47:54;;;;;;;29.75;20.92;;;14.90;99.90;;;;;;4591719;19;20303;-76
2023/12/14 01:49:29;;;;;;;26.30;18.67;;;14.90;99.90;;;;;;4592480;19;20442;-75
2023/12/14 01:51:04;;;;;;;37.38;22.02;;;14.90;99.90;;;;;;4592168;19;20078;-75
2023/12/14 01:52:38;;;;;;;37.13;23.45;;;14.90;99.90;;;;;;4592224;19;19999;-75
2023/12/14 01:54:13;;;;;;;30.40;20.63;;;15.00;99.90;;;;;;4592182;19;20312;-75
2023/12/14 01:55:47;;;;;;;35.17;22.65;;;15.00;99.90;;;;;;4592066;19;20314;-75
2023/12/14 01:57:21;;;;;;;30.38;19.90;;;15.00;99.90;;;;;;4592031;19;20022;-75
2023/12/14 01:58:57;;;;;;;28.70;19.10;;;15.00;99.90;;;;;;4592397;19;20294;-76
2023/12/14 02:00:44;;;;;;;27.50;18.33;;;15.00;99.90;;;;;;4591960;19;20030;-75
2023/12/14 02:02:19;;;;;;;25.73;18.75;;;15.00;99.90;;;;;;4590753;19;20014;-75
2023/12/14 02:03:55;;;;;;;28.75;19.23;;;15.00;99.90;;;;;;4591914;19;20069;-75
2023/12/14 02:05:29;;;;;;;24.88;17.20;;;15.10;99.90;;;;;;4590993;19;20002;-76
2023/12/14 02:07:04;;;;;;;25.88;17.65;;;15.00;99.90;;;;;;4591864;19;20013;-76
2023/12/14 02:08:39;;;;;;;29.70;21.08;;;15.00;99.90;;;;;;4590911;19;20104;-75
2023/12/14 02:10:13;;;;;;;28.13;19.17;;;15.00;99.90;;;;;;4592127;19;20301;-75
2023/12/14 02:11:47;;;;;;;29.23;19.80;;;15.00;99.90;;;;;;4591791;19;19999;-76
2023/12/14 02:13:23;;;;;;;27.98;18.75;;;15.10;99.90;;;;;;4592062;19;20087;-75
2023/12/14 02:14:58;;;;;;;25.65;18.40;;;15.00;99.90;;;;;;4590826;19;20018;-76
2023/12/14 02:16:32;;;;;;;31.13;20.27;;;15.00;99.90;;;;;;4592048;19;20011;-75
2023/12/14 02:18:08;;;;;;;28.40;19.15;;;15.00;99.90;;;;;;4591826;19;20006;-75
2023/12/14 02:19:42;;;;;;;27.77;18.35;;;15.00;99.90;;;;;;4591955;19;20002;-75
2023/12/14 02:21:16;;;;;;;28.40;19.25;;;15.00;99.90;;;;;;4591924;19;20319;-75
2023/12/14 02:22:54;;;;;;;30.25;19.95;;;14.90;99.90;;;;;;4591681;19;20002;-75
2023/12/14 02:24:29;;;;;;;30.58;19.20;;;14.90;99.90;;;;;;4591424;19;20005;-75
2023/12/14 02:26:03;;;;;;;31.48;21.27;;;14.90;99.90;;;;;;4591833;19;20010;-76
2023/12/14 02:27:39;;;;;;;29.52;20.13;;;14.90;99.90;;;;;;4591614;19;20009;-75
2023/12/14 02:29:14;;;;;;;28.33;19.67;;;14.90;99.90;;;;;;4591784;19;19998;-75
2023/12/14 02:30:49;;;;;;;29.33;21.23;;;14.90;99.90;;;;;;4591728;19;19999;-75
2023/12/14 02:32:24;;;;;;;28.33;20.13;;;14.80;99.90;;;;;;4591691;19;20288;-75
2023/12/14 02:33:58;;;;;;;30.52;20.25;;;14.80;99.90;;;;;;4591709;19;20003;-75
2023/12/14 02:35:32;;;;;;;33.25;20.23;;;14.80;99.90;;;;;;4590566;19;20012;-75
2023/12/14 02:37:08;;;;;;;31.10;20.25;;;14.80;99.90;;;;;;4590564;19;20030;-76
2023/12/14 02:38:42;;;;;;;31.45;20.08;;;14.80;99.90;;;;;;4591310;19;20426;-75
2023/12/14 02:40:17;;;;;;;30.92;21.58;;;14.80;99.90;;;;;;4591325;19;20002;-75
2023/12/14 02:41:53;;;;;;;30.98;20.13;;;14.80;99.90;;;;;;4591692;19;20006;-75
2023/12/14 02:43:28;;;;;;;29.90;20.27;;;14.80;99.90;;;;;;4591619;19;20015;-75
2023/12/14 02:45:02;;;;;;;30.92;20.67;;;14.70;99.90;;;;;;4590536;19;20006;-75
2023/12/14 02:46:38;;;;;;;31.15;19.98;;;14.70;99.90;;;;;;4594214;19;20007;-75
2023/12/14 02:48:12;;;;;;;29.95;21.23;;;14.70;99.90;;;;;;4594518;19;20005;-76
2023/12/14 02:49:46;;;;;;;31.50;20.45;;;14.80;99.90;;;;;;4596064;19;19999;-75
2023/12/14 02:51:21;;;;;;;30.63;20.60;;;14.70;99.90;;;;;;4595757;19;20003;-75
2023/12/14 02:52:55;;;;;;;31.92;20.88;;;14.70;99.90;;;;;;4595761;19;20034;-75
2023/12/14 02:54:30;;;;;;;31.67;21.55;;;14.70;99.90;;;;;;4595427;19;20080;-75
2023/12/14 02:56:07;;;;;;;30.42;19.30;;;14.70;99.90;;;;;;4595725;19;20086;-75
2023/12/14 02:57:41;;;;;;;29.63;19.40;;;14.70;99.90;;;;;;4595758;19;20011;-75
2023/12/14 02:59:17;;;;;;;32.83;21.05;;;14.70;99.90;;;;;;4595529;19;20006;-75
2023/12/14 03:00:52;;;;;;;29.30;19.45;;;14.70;99.90;;;;;;4595929;19;20012;-75
2023/12/14 03:02:26;;;;;;;28.63;18.95;;;14.70;99.90;;;;;;4595564;19;20022;-75
2023/12/14 03:04:00;;;;;;;28.15;19.35;;;14.70;99.90;;;;;;4595867;19;20002;-75
2023/12/14 03:05:36;;;;;;;30.33;19.55;;;14.70;99.90;;;;;;4594047;19;20026;-75
2023/12/14 03:07:11;;;;;;;29.55;19.92;;;14.70;99.90;;;;;;4595656;19;20421;-75
2023/12/14 03:08:45;;;;;;;31.80;21.02;;;14.60;99.90;;;;;;4593750;19;20027;-75
2023/12/14 03:10:21;;;;;;;31.05;20.58;;;14.60;99.90;;;;;;4595379;19;20027;-75
2023/12/14 03:11:55;;;;;;;29.23;19.95;;;14.60;99.90;;;;;;4595282;19;19998;-75
2023/12/14 03:13:29;;;;;;;30.45;20.40;;;14.70;99.90;;;;;;4595305;19;20461;-75
2023/12/14 03:15:05;;;;;;;29.15;19.95;;;14.60;99.90;;;;;;4592754;19;20018;-75
2023/12/14 03:16:39;;;;;;;28.30;20.10;;;14.60;99.90;;;;;;4595076;19;20003;-75
2023/12/14 03:18:13;;;;;;;30.27;18.73;;;14.60;99.90;;;;;;4595082;19;20002;-75
2023/12/14 03:19:49;;;;;;;28.45;18.70;;;14.60;99.90;;;;;;4593877;19;20034;-75
2023/12/14 03:21:23;;;;;;;29.98;19.70;;;14.60;99.90;;;;;;4593829;19;19998;-75
2023/12/14 03:22:58;;;;;;;29.10;19.38;;;14.60;99.90;;;;;;4594675;19;20002;-75
2023/12/14 03:24:34;;;;;;;30.13;19.05;;;14.60;99.90;;;;;;4594653;19;20013;-76
2023/12/14 03:26:08;;;;;;;27.70;18.02;;;14.60;99.90;;;;;;4595008;19;20322;-75
2023/12/14 03:27:41;;;;;;;28.15;18.45;;;14.60;99.90;;;;;;4594871;19;19998;-75
2023/12/14 03:29:19;;;;;;;29.00;18.63;;;14.60;99.90;;;;;;4595354;19;20027;-75
2023/12/14 03:30:52;;;;;;;29.05;18.65;;;14.60;99.90;;;;;;4593926;19;20318;-75
2023/12/14 03:32:27;;;;;;;27.92;19.13;;;14.60;99.90;;;;;;4594416;19;20002;-75
2023/12/14 03:34:02;;;;;;;29.52;18.65;;;14.60;99.90;;;;;;4593804;19;20378;-75
2023/12/14 03:35:37;;;;;;;27.83;18.73;;;14.60;99.90;;;;;;4593029;19;20073;-75
2023/12/14 03:37:13;;;;;;;29.30;19.35;;;14.60;99.90;;;;;;4594700;19;20429;-76
2023/12/14 03:38:48;;;;;;;28.33;18.35;;;14.60;99.90;;;;;;4594822;19;20315;-75
2023/12/14 03:40:24;;;;;;;28.98;19.13;;;14.60;99.90;;;;;;4594682;19;20355;-75
2023/12/14 03:41:58;;;;;;;28.92;18.48;;;14.60;99.90;;;;;;4594857;19;20005;-75
2023/12/14 03:43:34;;;;;;;29.33;19.75;;;14.60;99.90;;;;;;4594952;19;20011;-75
2023/12/14 03:45:08;;;;;;;27.67;18.65;;;14.60;99.90;;;;;;4593908;19;20006;-75
2023/12/14 03:46:43;;;;;;;27.25;18.92;;;14.60;99.90;;;;;;4594522;19;20020;-75
2023/12/14 03:48:18;;;;;;;26.05;18.45;;;14.60;99.90;;;;;;4593986;19;20006;-75
2023/12/14 03:49:52;;;;;;;26.40;17.65;;;14.60;99.90;;;;;;4594664;19;20066;-75
2023/12/14 03:51:26;;;;;;;27.15;18.30;;;14.60;99.90;;;;;;4593532;19;20327;-75
2023/12/14 03:53:02;;;;;;;26.65;18.00;;;14.60;99.90;;;;;;4593283;19;20017;-75
2023/12/14 03:54:36;;;;;;;27.25;17.00;;;14.60;99.90;;;;;;4594059;19;20019;-75
2023/12/14 03:56:11;;;;;;;25.65;17.42;;;14.50;99.90;;;;;;4593661;19;20006;-75
2023/12/14 03:57:47;;;;;;;26.80;18.23;;;14.60;99.90;;;;;;4594718;19;20002;-75
2023/12/14 03:59:22;;;;;;;26.13;18.25;;;14.60;99.90;;;;;;4594345;19;20070;-75
2023/12/14 04:00:56;;;;;;;24.73;16.05;;;14.50;99.90;;;;;;4594631;19;20414;-75
2023/12/14 04:02:32;;;;;;;23.85;16.50;;;14.60;99.90;;;;;;4594700;19;20006;-75
2023/12/14 04:04:06;;;;;;;24.02;16.77;;;14.50;99.90;;;;;;4594362;19;20469;-75
2023/12/14 04:05:39;;;;;;;26.50;18.65;;;14.50;99.90;;;;;;4592926;19;20009;-76
2023/12/14 04:07:17;;;;;;;27.58;17.42;;;14.50;99.90;;;;;;4594286;19;20007;-77
2023/12/14 04:08:51;;;;;;;26.50;16.63;;;14.60;99.90;;;;;;4593174;19;20418;-75
2023/12/14 04:10:26;;;;;;;26.33;17.92;;;14.60;99.90;;;;;;4594234;19;20430;-76
2023/12/14 04:12:02;;;;;;;24.65;16.13;;;14.60;99.90;;;;;;4594258;19;20027;-75
2023/12/14 04:13:36;;;;;;;25.52;16.45;;;14.70;99.90;;;;;;4594103;19;20032;-74
2023/12/14 04:15:11;;;;;;;26.30;17.33;;;14.90;99.90;;;;;;4593200;19;20018;-76
2023/12/14 04:16:48;;;;;;;25.77;17.73;;;15.00;99.90;;;;;;4592867;19;20010;-76
2023/12/14 04:18:22;;;;;;;24.33;16.23;;;15.10;99.90;;;;;;4594036;19;20446;-75
2023/12/14 04:19:56;;;;;;;25.77;16.20;;;15.20;99.90;;;;;;4592721;19;20003;-75
2023/12/14 04:21:32;;;;;;;24.80;17.27;;;15.30;99.90;;;;;;4593727;19;20006;-76
2023/12/14 04:23:07;;;;;;;25.33;16.73;;;15.40;99.90;;;;;;4593942;19;20005;-76
2023/12/14 04:24:41;;;;;;;26.00;17.02;;;15.40;99.90;;;;;;4593439;19;20038;-75
2023/12/14 04:26:16;;;;;;;24.38;16.85;;;15.50;99.90;;;;;;4593936;19;20082;-75
2023/12/14 04:27:51;;;;;;;24.27;17.27;;;15.50;99.90;;;;;;4593675;19;20348;-75
2023/12/14 04:29:25;;;;;;;22.73;16.98;;;15.50;99.80;;;;;;4594046;19;20021;-75
2023/12/14 04:31:01;;;;;;;24.05;16.23;;;15.60;99.80;;;;;;4594134;19;20019;-76
2023/12/14 04:32:35;;;;;;;23.50;16.70;;;15.50;99.70;;;;;;4593837;19;20001;-76
2023/12/14 04:34:14;;;;;;;24.15;17.65;;;15.60;99.70;;;;;;4593940;19;20010;-76
2023/12/14 04:35:50;;;;;;;22.85;15.80;;;15.60;99.60;;;;;;4592463;19;20030;-76
2023/12/14 04:37:24;;;;;;;21.83;15.88;;;15.60;99.50;;;;;;4593283;19;20029;-76
2023/12/14 04:39:00;;;;;;;24.00;16.20;;;15.60;99.50;;;;;;4592305;19;20077;-76
2023/12/14 04:40:36;;;;;;;24.73;17.35;;;15.60;99.50;;;;;;4593335;19;20038;-76
2023/12/14 04:42:11;;;;;;;21.92;16.23;;;15.70;99.50;;;;;;4593527;19;20007;-75
2023/12/14 04:43:45;;;;;;;24.20;17.50;;;15.60;99.50;;;;;;4593716;19;20023;-76
2023/12/14 04:45:21;;;;;;;26.92;17.67;;;15.60;99.50;;;;;;4592812;19;20017;-76
2023/12/14 04:46:55;;;;;;;26.85;17.95;;;15.60;99.50;;;;;;4593333;19;20022;-76
2023/12/14 04:48:30;;;;;;;26.70;17.25;;;15.70;99.50;;;;;;4592587;19;20006;-76
2023/12/14 04:50:06;;;;;;;24.27;17.25;;;15.70;99.50;;;;;;4593419;19;20014;-76
2023/12/14 04:51:41;;;;;;;23.35;16.63;;;15.80;99.50;;;;;;4593298;19;20078;-76
2023/12/14 04:53:15;;;;;;;25.73;18.13;;;15.90;99.50;;;;;;4593546;19;20006;-76
2023/12/14 04:54:51;;;;;;;25.20;17.48;;;16.00;99.50;;;;;;4591857;19;20440;-75
2023/12/14 04:56:25;;;;;;;24.98;16.48;;;16.00;99.40;;;;;;4591875;19;20342;-75
2023/12/14 04:58:00;;;;;;;22.48;15.45;;;16.10;99.30;;;;;;4593308;19;19999;-76
2023/12/14 04:59:36;;;;;;;24.23;16.30;;;16.20;99.20;;;;;;4593255;19;20010;-75
2023/12/14 05:01:13;;;;;;;24.73;16.52;;;16.20;99.10;;;;;;4593422;19;20006;-75
2023/12/14 05:02:50;;;;;;;25.48;17.98;;;16.30;99.10;;;;;;4593463;19;19999;-75
2023/12/14 05:04:26;;;;;;;25.23;16.38;;;16.30;98.90;;;;;;4592893;19;20329;-75
2023/12/14 05:06:00;;;;;;;25.35;17.10;;;16.30;98.90;;;;;;4591973;19;20007;-74
2023/12/14 05:07:34;;;;;;;23.05;16.80;;;16.40;98.80;;;;;;4592425;19;20003;-75
2023/12/14 05:09:11;;;;;;;24.30;17.35;;;16.40;98.70;;;;;;4591789;19;20301;-76
2023/12/14 05:10:46;;;;;;;25.40;16.80;;;16.40;98.60;;;;;;4593345;19;20017;-75
2023/12/14 05:12:21;;;;;;;23.60;16.67;;;16.40;98.50;;;;;;4592999;19;20006;-75
2023/12/14 05:13:56;;;;;;;23.33;16.17;;;16.40;98.60;;;;;;4593240;19;20024;-75
2023/12/14 05:15:30;;;;;;;21.67;16.15;;;16.40;98.60;;;;;;4591842;19;20014;-75
2023/12/14 05:17:05;;;;;;;23.42;16.05;;;16.40;98.60;;;;;;4593105;19;20010;-75
2023/12/14 05:18:40;;;;;;;24.35;15.95;;;16.40;98.60;;;;;;4592808;19;20433;-76
2023/12/14 05:20:14;;;;;;;21.75;15.13;;;16.40;98.60;;;;;;4592477;19;19999;-75
2023/12/14 05:21:50;;;;;;;22.77;16.63;;;16.40;98.50;;;;;;4592734;19;20002;-74
2023/12/14 05:23:25;;;;;;;23.90;15.68;;;16.30;98.60;;;;;;4592674;19;20010;-74
2023/12/14 05:25:00;;;;;;;23.90;16.60;;;16.30;98.60;;;;;;4591952;19;20310;-74
2023/12/14 05:26:34;;;;;;;20.20;14.13;;;16.20;98.70;;;;;;4592502;19;20006;-75
2023/12/14 05:28:10;;;;;;;21.92;15.90;;;16.20;98.70;;;;;;4592197;19;20037;-75
2023/12/14 05:29:45;;;;;;;20.27;14.93;;;16.10;98.70;;;;;;4593245;19;20415;-75
2023/12/14 05:31:19;;;;;;;21.33;14.73;;;16.10;98.70;;;;;;4591466;19;20180;-75
2023/12/14 05:32:54;;;;;;;19.50;14.50;;;16.00;98.70;;;;;;4591098;19;20014;-75
2023/12/14 05:34:28;;;;;;;19.95;13.77;;;16.00;98.70;;;;;;4591816;19;20429;-75
2023/12/14 05:36:04;;;;;;;18.50;13.88;;;16.00;98.80;;;;;;4592439;19;20003;-75
2023/12/14 05:37:41;;;;;;;19.35;13.63;;;15.90;98.80;;;;;;4592710;19;20034;-75
2023/12/14 05:39:16;;;;;;;22.48;15.23;;;15.90;98.80;;;;;;4592474;19;20098;-75
2023/12/14 05:40:51;;;;;;;17.50;13.65;;;15.90;98.90;;;;;;4592608;19;20082;-75
2023/12/14 05:42:26;;;;;;;21.15;14.50;;;15.80;98.90;;;;;;4592393;19;20013;-75
2023/12/14 05:44:00;;;;;;;18.50;14.32;;;15.80;98.90;;;;;;4592532;19;20009;-75
2023/12/14 05:45:34;;;;;;;19.60;14.07;;;15.80;98.90;;;;;;4591520;19;20069;-75
2023/12/14 05:47:10;;;;;;;20.00;14.20;;;15.70;98.90;;;;;;4590989;19;20609;-75
2023/12/14 05:48:45;;;;;;;18.90;13.27;;;15.70;98.90;;;;;;4591020;19;20002;-75
2023/12/14 05:50:18;;;;;;;20.38;13.50;;;15.70;99.00;;;;;;4592121;19;20006;-75
2023/12/14 05:51:54;;;;;;;19.92;14.35;;;15.60;98.90;;;;;;4592504;19;20007;-75
2023/12/14 05:53:28;;;;;;;18.10;13.52;;;15.60;98.90;;;;;;4592120;19;20426;-75
2023/12/14 05:55:03;;;;;;;19.77;13.60;;;15.60;99.00;;;;;;4590379;19;20030;-75
2023/12/14 05:56:39;;;;;;;21.45;15.20;;;15.50;99.00;;;;;;4591840;19;20005;-75
2023/12/14 05:58:13;;;;;;;23.00;15.75;;;15.60;99.10;;;;;;4592289;19;20023;-75
2023/12/14 05:59:47;;;;;;;18.88;13.82;;;15.50;99.00;;;;;;4590690;19;20006;-75
2023/12/14 06:01:23;;;;;;;20.17;14.88;;;15.50;99.00;;;;;;4591701;19;20010;-75
2023/12/14 06:02:58;;;;;;;22.58;16.65;;;15.50;99.10;;;;;;4592735;19;20018;-75
2023/12/14 06:04:32;;;;;;;21.10;15.48;;;15.50;99.10;;;;;;4591494;19;20027;-75
2023/12/14 06:06:08;;;;;;;20.75;14.73;;;15.50;99.20;;;;;;4591842;19;20007;-75
2023/12/14 06:07:42;;;;;;;19.40;13.93;;;15.50;99.20;;;;;;4591949;19;20003;-74
2023/12/14 06:09:18;;;;;;;19.38;14.63;;;15.60;99.20;;;;;;4591851;19;20022;-74
2023/12/14 06:10:54;;;;;;;21.42;14.70;;;15.60;99.20;;;;;;4591953;19;20027;-73
2023/12/14 06:12:29;;;;;;;21.30;14.98;;;15.60;99.10;;;;;;4591807;19;20363;-74
2023/12/14 06:14:05;;;;;;;24.85;16.17;;;15.70;99.00;;;;;;4591658;19;20017;-74
2023/12/14 06:15:40;;;;;;;21.90;15.50;;;15.70;99.00;;;;;;4590376;19;20074;-74
2023/12/14 06:17:15;;;;;;;21.15;15.18;;;15.60;99.00;;;;;;4591941;19;20014;-74
2023/12/14 06:18:49;;;;;;;20.05;14.43;;;15.70;99.00;;;;;;4591731;19;20002;-73
2023/12/14 06:20:24;;;;;;;21.20;14.27;;;15.70;99.00;;;;;;4595417;19;20078;-74
2023/12/14 06:21:58;;;;;;;21.83;15.30;;;15.60;99.00;;;;;;4596690;19;20002;-73
2023/12/14 06:23:34;;;;;;;19.80;14.40;;;15.60;98.90;;;;;;4596672;19;19998;-74
2023/12/14 06:25:10;;;;;;;19.77;13.70;;;15.60;98.90;;;;;;4595474;19;20407;-74
2023/12/14 06:26:45;;;;;;;18.67;12.85;;;15.60;99.10;;;;;;4596303;19;20310;-74
2023/12/14 06:28:21;;;;;;;19.17;13.15;;;15.60;98.90;;;;;;4593880;19;20038;-73
2023/12/14 06:29:57;;;;;;;16.88;12.63;;;15.60;98.90;;;;;;4596002;19;20011;-73
2023/12/14 06:31:30;;;;;;;18.52;13.38;;;15.60;98.90;;;;;;4596479;19;19999;-74
2023/12/14 06:33:05;;;;;;;19.48;14.15;;;15.50;98.80;;;;;;4596194;19;19999;-74
2023/12/14 06:34:41;;;;;;;18.25;13.65;;;15.50;98.80;;;;;;4595748;19;20097;-74
2023/12/14 06:36:21;;;;;;;18.30;13.63;;;15.50;99.00;;;;;;4596336;19;20010;-73
2023/12/14 06:37:55;;;;;;;17.92;13.70;;;15.50;98.90;;;;;;4595090;19;20443;-74
2023/12/14 06:39:31;;;;;;;21.38;15.32;;;15.50;98.90;;;;;;4595845;19;20006;-74
2023/12/14 06:41:05;;;;;;;18.17;13.90;;;15.50;98.80;;;;;;4595971;19;20007;-73
2023/12/14 06:42:42;;;;;;;17.60;12.85;;;15.50;98.90;;;;;;4596005;19;20010;-74
2023/12/14 06:44:17;;;;;;;20.63;14.05;;;15.40;98.90;;;;;;4595855;19;20441;-74
2023/12/14 06:45:52;;;;;;;16.83;12.93;;;15.40;98.90;;;;;;4596181;19;20381;-74
2023/12/14 06:47:27;;;;;;;17.42;12.75;;;15.40;99.00;;;;;;4595900;19;20003;-74
2023/12/14 06:49:02;;;;;;;20.35;14.32;;;15.40;99.10;;;;;;4594116;19;20013;-74
2023/12/14 06:50:36;;;;;;;18.58;13.27;;;15.50;99.00;;;;;;4595762;19;19999;-74
2023/12/14 06:52:10;;;;;;;18.27;13.25;;;15.60;99.00;;;;;;4594752;19;19999;-74
2023/12/14 06:53:47;;;;;;;17.85;13.48;;;15.70;98.80;;;;;;4596150;19;20003;-74
2023/12/14 06:55:21;;;;;;;17.38;13.63;;;15.90;98.70;;;;;;4594640;19;20006;-73
2023/12/14 06:56:56;;;;;;;17.90;12.65;;;16.00;98.60;;;;;;4595950;19;20010;-74
2023/12/14 06:58:31;;;;;;;20.73;14.32;;;16.10;98.50;;;;;;4596393;19;20030;-74
2023/12/14 07:00:05;;;;;;;17.00;12.45;;;16.20;98.30;;;;;;4595844;19;20006;-73
2023/12/14 07:01:40;;;;;;;20.20;14.30;;;16.30;98.20;;;;;;4595628;19;20019;-74
2023/12/14 07:03:16;;;;;;;20.13;16.02;;;16.30;98.10;;;;;;4595628;19;20015;-74
2023/12/14 07:04:50;;;;;;;22.20;16.92;;;16.40;98.00;;;;;;4593482;19;20323;-74
2023/12/14 07:06:24;;;;;;;26.00;17.98;;;16.50;97.90;;;;;;4595155;19;20006;-74
2023/12/14 07:08:00;;;;;;;23.42;18.02;;;16.50;97.80;;;;;;4595000;19;20007;-73
2023/12/14 07:09:36;;;;;;;21.50;17.63;;;16.60;97.70;;;;;;4595328;19;20010;-73
2023/12/14 07:11:12;;;;;;;23.58;18.00;;;16.60;97.60;;;;;;4595640;19;20414;-72
2023/12/14 07:12:48;;;;;;;22.48;17.48;;;16.60;97.60;;;;;;4595751;19;20429;-73
2023/12/14 07:14:22;;;;;;;22.80;16.58;;;16.60;97.60;;;;;;4595047;19;20314;-73
2023/12/14 07:15:57;;;;;;;21.23;15.35;;;16.60;97.50;;;;;;4595206;19;20031;-72
2023/12/14 07:17:32;;;;;;;22.25;16.25;;;16.60;97.50;;;;;;4595497;19;20457;-73
2023/12/14 07:19:06;;;;;;;21.50;14.95;;;16.60;97.50;;;;;;4595511;19;20005;-73
2023/12/14 07:20:42;;;;;;;22.98;16.08;;;16.50;97.50;;;;;;4595465;19;20025;-73
2023/12/14 07:22:18;;;;;;;20.50;14.52;;;16.50;97.50;;;;;;4595523;19;20307;-73
2023/12/14 07:23:52;;;;;;;16.75;13.77;;;16.50;97.50;;;;;;4595372;19;20009;-73
2023/12/14 07:25:26;;;;;;;20.48;15.23;;;16.50;97.60;;;;;;4593758;19;20016;-73
2023/12/14 07:27:01;;;;;;;19.13;13.38;;;16.40;97.50;;;;;;4595175;19;20426;-73
2023/12/14 07:28:35;;;;;;;21.35;15.05;;;16.40;97.50;;;;;;4593964;19;20003;-73
2023/12/14 07:30:10;;;;;;;20.58;14.95;;;16.30;97.50;;;;;;4593679;19;20094;-73
2023/12/14 07:31:46;;;;;;;21.95;14.60;;;16.30;97.60;;;;;;4592967;19;20438;-73
2023/12/14 07:33:21;;;;;;;20.55;14.52;;;16.30;97.50;;;;;;4593618;19;19999;-73
2023/12/14 07:34:55;;;;;;;20.30;15.07;;;16.20;97.50;;;;;;4593739;19;20478;-73
2023/12/14 07:36:31;;;;;;;20.05;14.77;;;16.20;97.50;;;;;;4593884;19;20013;-73
2023/12/14 07:38:05;;;;;;;21.63;15.82;;;16.10;97.50;;;;;;4594372;19;20006;-73
2023/12/14 07:39:39;;;;;;;22.10;15.75;;;16.10;97.50;;;;;;4594851;19;19998;-73
2023/12/14 07:41:15;;;;;;;20.60;14.82;;;16.10;97.60;;;;;;4594808;19;20013;-73
2023/12/14 07:42:49;;;;;;;21.88;16.05;;;16.00;97.60;;;;;;4595056;19;20058;-73
2023/12/14 07:44:25;;;;;;;23.00;16.45;;;16.00;97.70;;;;;;4593418;19;20021;-73
2023/12/14 07:46:00;;;;;;;22.30;15.63;;;16.00;97.60;;;;;;4594394;19;20306;-73
2023/12/14 07:47:34;;;;;;;23.05;16.83;;;16.00;97.60;;;;;;4594909;19;20003;-73
2023/12/14 07:49:10;;;;;;;21.98;15.35;;;15.90;97.60;;;;;;4593108;19;20002;-73
2023/12/14 07:50:45;;;;;;;20.30;14.98;;;15.80;97.70;;;;;;4594652;19;20030;-73
2023/12/14 07:52:19;;;;;;;19.38;15.25;;;15.90;97.70;;;;;;4594711;19;20039;-73
2023/12/14 07:53:54;;;;;;;19.98;14.85;;;15.80;97.70;;;;;;4594524;19;20009;-73
2023/12/14 07:55:31;;;;;;;22.30;15.60;;;15.80;97.80;;;;;;4593255;19;20018;-73
2023/12/14 07:57:05;;;;;;;18.83;13.90;;;15.80;97.90;;;;;;4593372;19;20315;-73
2023/12/14 07:58:39;;;;;;;22.02;15.82;;;15.70;97.90;;;;;;4594095;19;20027;-73
2023/12/14 08:00:16;;;;;;;28.38;21.30;;;15.70;97.90;;;;;;4594440;19;19998;-73
2023/12/14 08:01:50;;;;;;;26.20;19.45;;;15.70;97.90;;;;;;4594613;19;20027;-73
2023/12/14 08:03:24;;;;;;;25.13;17.85;;;15.70;97.90;;;;;;4594254;19;20370;-73
2023/12/14 08:05:02;;;;;;;22.48;16.15;;;15.60;97.90;;;;;;4593527;19;20013;-73
2023/12/14 08:06:38;;;;;;;23.98;17.52;;;15.60;97.90;;;;;;4594453;19;20006;-73
2023/12/14 08:08:13;;;;;;;21.95;15.82;;;15.50;97.90;;;;;;4593701;19;20018;-73
2023/12/14 08:09:48;;;;;;;23.42;17.52;;;15.50;97.90;;;;;;4594304;19;20010;-73
2023/12/14 08:11:22;;;;;;;20.20;15.52;;;15.50;97.90;;;;;;4594100;19;20002;-73
2023/12/14 08:12:57;;;;;;;21.67;14.98;;;15.50;97.90;;;;;;4594134;19;20026;-73
2023/12/14 08:14:43;;;;;;;21.33;14.80;;;15.50;97.90;;;;;;4593441;19;20445;-73
2023/12/14 08:16:18;;;;;;;19.38;14.18;;;15.50;98.00;;;;;;4594101;19;20070;-73